Other Surface Observations
Issued by NWS Great Falls, MT

Home | Current Version | Previous Version | Text Only | Print | Product List | Glossary On
Versions: 1 2 3 4 5 6 7 8 9 10 11 12 13 14 15 16 17 18 19 20 21 22 23 24 25 26 27 28 29 30 31 32 33 34 35 36 37 38 39 40 41 42 43 44 45 46 47 48 49 50
545
SXUS55 KTFX 232129
OSOTFX
AREA AWOS OBSERVATIONS
NATIONAL WEATHER SERVICE GREAT FALLS MT
0329 PM MDT SAT JUL 23 2016

METAR KPWD 232130Z AUTO 30022G28KT 7SM 24/13 A2983 RMK PLENTYWOOD
METAR KPO1 232130Z AUTO 31022G25KT 10SM 26/11 A2987 RMK POPLAR
METAR K1S3 232130Z AUTO 27010G22KT 10SM 28/06 A2996 RMK FORSYTH
METAR KS71 232130Z AUTO 27013G18KT 10SM 27/10 A2997 RMK CHINOOK
METAR K38S 232130Z AUTO 04009KT 10SM 21/04 A3018 RMK DEER LODGE
METAR K3U3 232130Z AUTO 35010KT 10SM 22/06 A3015 RMK ANACONDA
METAR K6S5 232130Z AUTO 33007KT 10SM 22/07 A3014 RMK HAMILTON
METAR KS59 232130Z AUTO 27003KT 10SM 23/06 A3013 RMK LIBBY
METAR K88M 232130Z AUTO 23010KT 10SM 26/07 A3009 RMK EUREKA



USA.gov is the U.S. government's official web portal to all federal, state and local government web resources and services.